Flight Track Log - Related Links

Times and Time Zones

All times are in EDT time to prevent confusion due to time zone crossing. See the SWA2058 flight status page for this flight to view local times or setup timezone preferences in your user account.

Time Position Orientation Groundspeed Altitude Reporting Facility
EDT Latitude Longitude Course Direction KTS MPH feet Rate Location/Type
Sat 08:57:10 PM 36.1006 -115.1522 279° West 199 229 3,000  Level Los Angeles Center
Sat 08:58:41 PM 36.1114 -115.2417 279° West 237 273 6,100 2,628 Climbing Los Angeles Center
Sat 08:59:11 PM 36.1014 -115.2878 255° West 258 297 8,300 3,848 Climbing Los Angeles Center
Sat 09:00:13 PM 36.0447 -115.3514 222° Southwest 294 338 12,000 3,610 Climbing Los Angeles Center
Sat 09:01:14 PM 36.0161 -115.4706 253° West 339 390 15,700 3,463 Climbing Los Angeles Center
Sat 09:02:16 PM 35.9869 -115.5900 253° West 360 414 19,100 3,317 Climbing Los Angeles Center
Sat 09:03:17 PM 35.9825 -115.7178 268° West 383 441 22,500 3,024 Climbing Los Angeles Center
Sat 09:04:19 PM 36.0439 -115.8225 306° West 397 457 25,300 2,829 Climbing Los Angeles Center
Sat 09:05:20 PM 36.1144 -115.9450 306° West 406 467 28,300 3,171 Climbing Los Angeles Center
Sat 09:06:22 PM 36.1789 -116.0589 305° West 404 465 31,800 2,780 Climbing Los Angeles Center
Sat 09:07:23 PM 36.2403 -116.1678 305° West 389 448 34,000 1,073 Climbing Los Angeles Center
Sat 09:08:25 PM 36.3067 -116.2853 305° West 389 448 34,000  Level Los Angeles Center
Sat 09:09:26 PM 36.3742 -116.4022 306° West 413 475 34,000  Level Los Angeles Center
Sat 09:10:27 PM 36.4389 -116.5178 305° West 412 474 34,000  Level Los Angeles Center
Sat 09:11:29 PM 36.5039 -116.6350 305° West 412 474 34,000  Level Los Angeles Center
Sat 09:12:30 PM 36.5700 -116.7475 306° West 420 483 34,000  Level Los Angeles Center
Sat 09:13:31 PM 36.6936 -116.8450 328° Northwest 439 505 34,000  Level Los Angeles Center
Sat 09:14:33 PM 36.7983 -116.9244 329° Northwest 439 505 34,000  Level Los Angeles Center
Sat 09:15:34 PM 36.9042 -117.0044 329° Northwest 443 510 34,000  Level Los Angeles Center
Sat 09:16:35 PM 37.0100 -117.0850 329° Northwest 444 511 34,000  Level Los Angeles Center
Sat 09:17:37 PM 37.1153 -117.1678 328° Northwest 445 512 34,000  Level Los Angeles Center
Sat 09:18:38 PM 37.2219 -117.2486 329° Northwest 445 512 34,000  Level Los Angeles Center
Sat 09:19:39 PM 37.3253 -117.3347 326° Northwest 445 512 34,000 -124 Level Los Angeles Center
Sat 09:20:15 PM 37.3803 -117.3964 318° Northwest 435 501 33,800 -742 Descending Oakland Center
Sat 09:21:16 PM 37.4744 -117.4969 320° Northwest 440 506 32,800 -984 Descending Oakland Center
Sat 09:22:17 PM 37.5786 -117.5878 325° Northwest 451 519 31,800 -984 Descending Oakland Center
Sat 09:23:18 PM 37.6864 -117.6714 328° Northwest 452 520 30,800 -984 Descending Oakland Center
Sat 09:24:19 PM 37.7936 -117.7569 328° Northwest 452 520 29,800 -934 Descending Oakland Center
Sat 09:25:20 PM 37.9017 -117.8425 328° Northwest 454 522 28,900 -885 Descending Oakland Center
Sat 09:26:21 PM 38.0078 -117.9267 328° Northwest 449 517 28,000 -443 Descending Oakland Center
Sat 09:27:22 PM 38.1122 -118.0119 327° Northwest 444 511 28,000  Level Oakland Center
Sat 09:28:22 PM 38.2381 -118.1122 328° Northwest 442 509 28,000  Level Oakland Center
Sat 09:29:23 PM 38.3306 -118.1875 327° Northwest 440 506 28,000  Level Oakland Center
Sat 09:30:24 PM 38.4331 -118.2736 327° Northwest 441 507 28,000  Level Oakland Center
Sat 09:31:25 PM 38.5189 -118.3836 315° West 437 503 28,000  Level Oakland Center
Sat 09:32:26 PM 38.6061 -118.4911 316° Northwest 436 502 28,000  Level Oakland Center
Sat 09:33:27 PM 38.6928 -118.5994 316° Northwest 434 499 28,000  Level Oakland Center
Sat 09:34:28 PM 38.7808 -118.7094 316° Northwest 440 506 28,000 -645 Level Oakland Center
Sat 09:35:28 PM 38.8686 -118.8192 316° Northwest 439 505 26,700 -2,033 Descending Oakland Center
Sat 09:36:29 PM 38.9531 -118.9242 316° Northwest 424 488 23,900 -2,705 Descending Oakland Center
Sat 09:37:30 PM 39.0350 -119.0269 316° Northwest 413 475 21,200 -2,607 Descending Oakland Center
Sat 09:38:31 PM 39.1133 -119.1278 315° West 400 460 18,600 -2,656 Descending Oakland Center
Sat 09:39:32 PM 39.2053 -119.2431 316° Northwest 385 443 15,800 -2,754 Descending Oakland Center
Sat 09:40:33 PM 39.2797 -119.3375 316° Northwest 378 435 13,000 -1,721 Descending Oakland Center
Sat 09:41:34 PM 39.3464 -119.4194 316° Northwest 348 400 12,300 -1,041 Descending Oakland Center
Sat 09:42:34 PM 39.4111 -119.4844 322° Northwest 316 364 10,900 -1,438 Descending Oakland Center
Sat 09:43:35 PM 39.4761 -119.5453 324° Northwest 298 343 9,400 -885 Descending Oakland Center
Sat 09:44:36 PM 39.5331 -119.5981 324° Northwest 269 310 9,100 -541 Descending Oakland Center
Sat 09:45:37 PM 39.5700 -119.6422 317° Northwest 241 277 8,300 -1,512 Descending Oakland Center
Sat 09:46:39 PM 39.5667 -119.7333 267° West 175 201 6,000 -1,623 Descending Northern Cal TRACON
Sat 09:47:39 PM 39.5500 -119.7667 237° Southwest 152 175 5,000 -1,000 Descending Northern Cal TRACON
Sat 09:49:00 PM 39.4991 -119.7681 270° West  Level Estimated
Sat 09:56:00 PM 39.4991 -119.7681 270° West  Level Estimated

Login

Don't have an account? Register now (free) for customized features, flight alerts, and more!